Time;durP1;ratioP1;P1;durP2;ratioP2;P2;SDS_P1;SDS_P2;PMS_P1;PMS_P2;Temp;Humidity;BMP_temperature;BMP_pressure;BME280_temperature;BME280_humidity;BME280_pressure;Samples;Min_cycle;Max_cycle;Signal;HPM_P1;HPM_P2
2022/10/12 00:00:53;;;;;;;29.70;9.18;;;;;;;;;;4988589;28;20480;-68
2022/10/12 00:03:19;;;;;;;27.73;8.70;;;;;;;;;;4992090;28;20113;-65
2022/10/12 00:05:44;;;;;;;25.50;9.75;;;;;;;;;;4981039;28;20019;-67
2022/10/12 00:08:10;;;;;;;26.75;9.25;;;;;;;;;;4995011;28;20156;-67
2022/10/12 00:10:39;;;;;;;28.58;9.57;;;;;;;;;;4980721;28;20081;-68
2022/10/12 00:13:04;;;;;;;31.90;9.50;;;;;;;;;;4970927;28;20025;-68
2022/10/12 00:15:29;;;;;;;25.83;8.18;;;;;;;;;;4972618;28;20109;-66
2022/10/12 00:17:54;;;;;;;29.48;8.00;;;;;;;;;;4972080;28;20457;-68
2022/10/12 00:20:19;;;;;;;26.05;8.27;;;;;;;;;;4972359;28;20054;-68
2022/10/12 00:22:44;;;;;;;24.23;7.63;;;;;;;;;;4970714;28;20099;-66
2022/10/12 00:25:10;;;;;;;26.23;9.27;;;;;;;;;;4971956;28;20035;-65
2022/10/12 00:27:35;;;;;;;28.88;8.43;;;;;;;;;;4967949;28;20055;-66
2022/10/12 00:30:00;;;;;;;29.88;7.80;;;;;;;;;;4980716;28;20382;-68
2022/10/12 00:32:25;;;;;;;28.95;8.85;;;;;;;;;;4984768;28;20031;-68
2022/10/12 00:34:51;;;;;;;28.42;8.70;;;;;;;;;;4971409;28;20469;-66
2022/10/12 00:37:16;;;;;;;25.02;8.65;;;;;;;;;;4971745;28;20023;-68
2022/10/12 00:39:41;;;;;;;30.33;8.07;;;;;;;;;;4963193;28;20034;-67
2022/10/12 00:42:09;;;;;;;53.88;9.35;;;;;;;;;;4973456;28;20035;-66
2022/10/12 00:44:40;;;;;;;20.25;8.15;;;;;;;;;;4977973;28;20027;-67
2022/10/12 00:47:12;;;;;;;21.80;7.82;;;;;;;;;;4971817;28;20027;-66
2022/10/12 00:49:38;;;;;;;30.58;7.95;;;;;;;;;;4972554;28;20161;-65
2022/10/12 00:52:05;;;;;;;28.35;8.25;;;;;;;;;;4984304;28;20114;-65
2022/10/12 00:54:33;;;;;;;19.98;8.00;;;;;;;;;;4973156;28;20023;-65
2022/10/12 00:57:00;;;;;;;22.08;8.73;;;;;;;;;;4972787;28;20014;-66
2022/10/12 00:59:27;;;;;;;29.83;8.73;;;;;;;;;;4973513;28;20554;-66
2022/10/12 01:01:52;;;;;;;18.77;7.57;;;;;;;;;;4971804;28;20130;-67
2022/10/12 01:04:18;;;;;;;27.48;8.43;;;;;;;;;;4971447;28;20481;-68
2022/10/12 01:06:43;;;;;;;23.98;8.15;;;;;;;;;;4980175;28;20028;-66
2022/10/12 01:09:08;;;;;;;21.20;8.38;;;;;;;;;;4984486;28;20112;-65
2022/10/12 01:11:33;;;;;;;24.50;9.50;;;;;;;;;;4990363;28;20054;-68
2022/10/12 01:13:58;;;;;;;21.85;8.18;;;;;;;;;;4987898;28;20062;-65
2022/10/12 01:16:30;;;;;;;27.95;7.97;;;;;;;;;;4984165;28;20015;-67
2022/10/12 01:19:13;;;;;;;22.33;8.40;;;;;;;;;;4983379;28;20079;-68
2022/10/12 01:21:44;;;;;;;21.02;7.60;;;;;;;;;;4979536;28;20018;-68
2022/10/12 01:24:24;;;;;;;30.02;8.98;;;;;;;;;;4974194;28;20031;-67
2022/10/12 01:27:08;;;;;;;19.98;8.45;;;;;;;;;;4971279;28;20019;-67
2022/10/12 01:29:51;;;;;;;19.80;8.05;;;;;;;;;;4978021;28;20102;-68
2022/10/12 01:32:21;;;;;;;26.67;8.38;;;;;;;;;;4970817;28;20026;-67
2022/10/12 01:34:57;;;;;;;22.45;7.95;;;;;;;;;;4970780;28;20540;-67
2022/10/12 01:37:30;;;;;;;29.60;9.35;;;;;;;;;;4970195;28;20023;-64
2022/10/12 01:39:58;;;;;;;21.75;8.55;;;;;;;;;;4970513;28;20018;-66
2022/10/12 01:42:28;;;;;;;22.63;8.70;;;;;;;;;;4971108;28;20026;-66
2022/10/12 01:45:01;;;;;;;20.45;7.93;;;;;;;;;;4973169;28;20112;-66
2022/10/12 01:47:26;;;;;;;27.25;8.18;;;;;;;;;;4971314;28;20041;-67
2022/10/12 01:49:52;;;;;;;25.52;8.45;;;;;;;;;;4971628;28;20026;-67
2022/10/12 01:52:25;;;;;;;35.55;8.52;;;;;;;;;;4971400;28;20041;-66
2022/10/12 01:55:09;;;;;;;25.00;8.55;;;;;;;;;;4970552;28;20142;-68
2022/10/12 01:57:43;;;;;;;30.40;9.50;;;;;;;;;;4970055;28;20501;-67
2022/10/12 02:00:10;;;;;;;25.55;9.20;;;;;;;;;;4982258;28;20477;-67
2022/10/12 02:02:47;;;;;;;32.17;8.63;;;;;;;;;;4973025;28;20019;-65
2022/10/12 02:05:12;;;;;;;25.92;8.38;;;;;;;;;;4969511;28;20015;-67
2022/10/12 02:07:42;;;;;;;24.48;9.48;;;;;;;;;;4987915;28;20087;-67
2022/10/12 02:10:20;;;;;;;28.42;8.20;;;;;;;;;;4969408;28;20023;-67
2022/10/12 02:12:48;;;;;;;32.38;10.70;;;;;;;;;;4953146;28;20023;-67
2022/10/12 02:15:14;;;;;;;21.10;8.30;;;;;;;;;;4986523;28;20558;-66
2022/10/12 02:17:40;;;;;;;23.77;8.32;;;;;;;;;;4975724;28;20058;-66
2022/10/12 02:20:07;;;;;;;26.50;9.05;;;;;;;;;;4990130;28;20023;-65
2022/10/12 02:22:35;;;;;;;30.38;8.70;;;;;;;;;;4976561;28;20022;-66
2022/10/12 02:25:05;;;;;;;21.40;8.15;;;;;;;;;;4979636;28;20043;-67
2022/10/12 02:27:32;;;;;;;26.13;8.70;;;;;;;;;;4987510;28;20048;-65
2022/10/12 02:29:57;;;;;;;40.63;9.65;;;;;;;;;;4989322;28;20392;-67
2022/10/12 02:32:28;;;;;;;28.60;8.40;;;;;;;;;;4972710;28;20019;-66
2022/10/12 02:35:03;;;;;;;19.73;8.05;;;;;;;;;;4950489;28;20027;-65
2022/10/12 02:37:39;;;;;;;26.15;8.75;;;;;;;;;;4974885;28;20095;-68
2022/10/12 02:40:11;;;;;;;30.35;10.32;;;;;;;;;;4976746;28;20019;-66
2022/10/12 02:42:39;;;;;;;28.50;8.23;;;;;;;;;;4981454;28;20015;-66
2022/10/12 02:45:07;;;;;;;26.05;8.68;;;;;;;;;;4983892;28;20109;-67
2022/10/12 02:47:33;;;;;;;23.50;8.80;;;;;;;;;;4981460;28;20026;-65
2022/10/12 02:49:59;;;;;;;31.13;10.15;;;;;;;;;;4969975;28;20022;-65
2022/10/12 02:52:25;;;;;;;27.10;8.57;;;;;;;;;;4981120;28;20015;-66
2022/10/12 02:54:50;;;;;;;28.80;9.10;;;;;;;;;;4969302;28;20034;-67
2022/10/12 02:57:15;;;;;;;23.73;8.88;;;;;;;;;;4969523;28;20041;-66
2022/10/12 02:59:41;;;;;;;23.55;9.15;;;;;;;;;;4977137;28;20069;-68
2022/10/12 03:02:07;;;;;;;32.30;9.02;;;;;;;;;;4968832;28;20607;-65
2022/10/12 03:04:32;;;;;;;22.27;8.18;;;;;;;;;;4969577;28;20030;-68
2022/10/12 03:06:58;;;;;;;28.10;10.20;;;;;;;;;;4982745;28;20018;-65
2022/10/12 03:09:23;;;;;;;34.15;9.40;;;;;;;;;;4992445;28;20064;-66
2022/10/12 03:11:48;;;;;;;22.55;9.70;;;;;;;;;;4969636;28;20081;-65
2022/10/12 03:14:14;;;;;;;25.27;9.50;;;;;;;;;;4964138;28;20037;-66
2022/10/12 03:16:41;;;;;;;24.58;8.95;;;;;;;;;;4968793;28;20902;-66
2022/10/12 03:19:06;;;;;;;29.73;10.43;;;;;;;;;;4969233;28;20503;-66
2022/10/12 03:21:31;;;;;;;28.77;10.48;;;;;;;;;;4958601;28;20121;-67
2022/10/12 03:23:57;;;;;;;30.38;11.25;;;;;;;;;;4974761;28;20029;-65
2022/10/12 03:26:22;;;;;;;25.58;10.65;;;;;;;;;;4968715;28;20034;-67
2022/10/12 03:28:47;;;;;;;32.85;10.18;;;;;;;;;;4977692;28;20026;-66
2022/10/12 03:31:12;;;;;;;27.83;10.43;;;;;;;;;;4984652;28;20558;-67
2022/10/12 03:33:38;;;;;;;32.72;11.40;;;;;;;;;;4971276;28;20037;-65
2022/10/12 03:36:03;;;;;;;28.65;10.27;;;;;;;;;;4972545;28;20023;-67
2022/10/12 03:38:28;;;;;;;25.08;10.82;;;;;;;;;;4972586;28;20023;-67
2022/10/12 03:40:53;;;;;;;24.63;9.73;;;;;;;;;;4971990;28;20038;-66
2022/10/12 03:43:19;;;;;;;37.13;9.45;;;;;;;;;;4972547;28;20023;-67
2022/10/12 03:45:44;;;;;;;22.65;8.48;;;;;;;;;;4980744;28;20078;-65
2022/10/12 03:48:09;;;;;;;20.48;8.70;;;;;;;;;;4983481;28;20050;-66
2022/10/12 03:50:34;;;;;;;21.65;9.18;;;;;;;;;;4968148;28;20027;-64
2022/10/12 03:53:00;;;;;;;24.83;9.82;;;;;;;;;;4973110;28;20026;-65
2022/10/12 03:55:25;;;;;;;20.60;8.75;;;;;;;;;;4972733;28;20019;-65
2022/10/12 03:57:50;;;;;;;27.08;9.55;;;;;;;;;;4964886;28;20041;-65
2022/10/12 04:00:15;;;;;;;30.23;10.60;;;;;;;;;;4978919;28;20050;-67
2022/10/12 04:02:41;;;;;;;25.67;10.10;;;;;;;;;;4977757;28;20517;-67
2022/10/12 04:05:06;;;;;;;30.58;11.13;;;;;;;;;;4972969;28;20023;-69
2022/10/12 04:07:31;;;;;;;30.52;10.45;;;;;;;;;;4993591;28;20101;-69
2022/10/12 04:09:56;;;;;;;25.42;9.35;;;;;;;;;;4980007;28;20464;-70
2022/10/12 04:12:22;;;;;;;28.08;9.60;;;;;;;;;;4982907;28;20059;-65
2022/10/12 04:14:47;;;;;;;24.27;9.18;;;;;;;;;;4982461;28;20094;-67
2022/10/12 04:17:13;;;;;;;28.92;9.38;;;;;;;;;;4980341;28;20057;-67
2022/10/12 04:19:39;;;;;;;23.77;8.32;;;;;;;;;;4983423;28;20459;-67
2022/10/12 04:22:04;;;;;;;24.13;8.40;;;;;;;;;;4963547;28;20019;-69
2022/10/12 04:24:29;;;;;;;21.40;8.75;;;;;;;;;;4965847;28;20030;-69
2022/10/12 04:26:54;;;;;;;24.25;9.40;;;;;;;;;;4978238;28;20432;-68
2022/10/12 04:29:21;;;;;;;26.20;11.85;;;;;;;;;;4979859;28;20023;-66
2022/10/12 04:31:46;;;;;;;22.50;11.25;;;;;;;;;;4968167;28;20022;-68
2022/10/12 04:34:11;;;;;;;28.80;12.27;;;;;;;;;;4979372;28;20642;-66
2022/10/12 04:36:36;;;;;;;29.17;12.82;;;;;;;;;;4975092;28;20034;-66
2022/10/12 04:39:01;;;;;;;30.95;12.52;;;;;;;;;;4983521;28;20126;-68
2022/10/12 04:41:27;;;;;;;24.90;12.38;;;;;;;;;;4984509;28;20026;-67
2022/10/12 04:43:52;;;;;;;38.78;13.82;;;;;;;;;;4961583;28;20049;-67
2022/10/12 04:46:17;;;;;;;32.53;12.65;;;;;;;;;;4981113;28;20098;-67
2022/10/12 04:48:43;;;;;;;36.28;12.73;;;;;;;;;;4992148;28;20454;-68
2022/10/12 04:51:08;;;;;;;24.70;11.23;;;;;;;;;;4996214;28;20030;-67
2022/10/12 04:53:33;;;;;;;34.17;11.25;;;;;;;;;;4985842;28;20496;-69
2022/10/12 04:56:01;;;;;;;26.95;11.77;;;;;;;;;;4984701;28;20534;-69
2022/10/12 04:58:26;;;;;;;24.95;11.35;;;;;;;;;;4989640;28;20137;-68
2022/10/12 05:00:51;;;;;;;44.25;15.23;;;;;;;;;;4983708;28;20543;-67
2022/10/12 05:03:16;;;;;;;28.40;12.38;;;;;;;;;;4984348;28;20068;-68
2022/10/12 05:05:43;;;;;;;22.48;10.80;;;;;;;;;;4983313;28;20072;-66
2022/10/12 05:08:08;;;;;;;26.88;11.88;;;;;;;;;;4991609;28;20576;-70
2022/10/12 05:10:33;;;;;;;31.42;12.35;;;;;;;;;;4986141;28;20037;-67
2022/10/12 05:12:58;;;;;;;30.67;11.63;;;;;;;;;;4977712;28;20413;-68
2022/10/12 05:15:24;;;;;;;31.45;12.80;;;;;;;;;;4979023;28;20027;-69
2022/10/12 05:17:49;;;;;;;29.52;14.57;;;;;;;;;;4973579;28;20018;-69
2022/10/12 05:20:14;;;;;;;34.53;13.10;;;;;;;;;;4980584;28;20115;-68
2022/10/12 05:22:39;;;;;;;30.42;12.15;;;;;;;;;;4979433;28;20026;-67
2022/10/12 05:25:05;;;;;;;33.03;11.70;;;;;;;;;;4961183;28;20042;-67
2022/10/12 05:27:30;;;;;;;29.02;12.10;;;;;;;;;;4975163;28;20103;-66
2022/10/12 05:29:55;;;;;;;25.90;11.35;;;;;;;;;;4987656;28;20073;-69
2022/10/12 05:32:21;;;;;;;29.98;12.52;;;;;;;;;;4973272;28;20026;-66
2022/10/12 05:34:46;;;;;;;22.55;11.07;;;;;;;;;;4972083;28;20437;-68
2022/10/12 05:37:11;;;;;;;34.72;12.90;;;;;;;;;;4985577;28;20019;-67
2022/10/12 05:39:36;;;;;;;37.47;14.10;;;;;;;;;;4981677;28;20038;-68
2022/10/12 05:42:02;;;;;;;32.63;15.00;;;;;;;;;;4977307;28;20464;-67
2022/10/12 05:44:27;;;;;;;38.33;12.80;;;;;;;;;;4986324;28;20604;-68
2022/10/12 05:46:52;;;;;;;32.80;14.00;;;;;;;;;;4989233;28;20029;-67
2022/10/12 05:49:18;;;;;;;31.92;13.65;;;;;;;;;;4986648;28;20031;-66
2022/10/12 05:51:43;;;;;;;38.17;13.13;;;;;;;;;;4985853;28;20022;-71
2022/10/12 05:54:08;;;;;;;33.05;13.85;;;;;;;;;;4986731;28;20042;-68
2022/10/12 05:56:33;;;;;;;34.63;14.48;;;;;;;;;;4983305;28;20054;-68
2022/10/12 05:58:59;;;;;;;30.23;13.30;;;;;;;;;;4977854;28;20049;-68
2022/10/12 06:01:24;;;;;;;40.40;14.43;;;;;;;;;;4968997;28;20026;-67
2022/10/12 06:03:50;;;;;;;40.83;14.48;;;;;;;;;;4989435;28;20018;-67
2022/10/12 06:06:15;;;;;;;38.67;13.90;;;;;;;;;;4980061;28;20484;-69
2022/10/12 06:08:40;;;;;;;37.10;13.15;;;;;;;;;;4978422;28;20042;-66
2022/10/12 06:11:06;;;;;;;31.33;14.13;;;;;;;;;;4963713;28;20031;-65
2022/10/12 06:13:31;;;;;;;36.45;15.27;;;;;;;;;;4975729;28;20102;-69
2022/10/12 06:15:56;;;;;;;43.78;16.55;;;;;;;;;;4973292;28;20420;-65
2022/10/12 06:18:22;;;;;;;43.35;17.80;;;;;;;;;;4972977;28;20137;-71
2022/10/12 06:20:48;;;;;;;41.78;16.05;;;;;;;;;;4981479;28;20069;-66
2022/10/12 06:23:13;;;;;;;39.63;16.88;;;;;;;;;;4984259;28;20560;-69
2022/10/12 06:25:39;;;;;;;41.85;14.75;;;;;;;;;;4982572;28;20022;-66
2022/10/12 06:28:04;;;;;;;38.28;15.25;;;;;;;;;;4983704;28;20026;-65
2022/10/12 06:30:29;;;;;;;40.40;14.93;;;;;;;;;;4982464;28;20122;-68
2022/10/12 06:32:54;;;;;;;28.02;12.68;;;;;;;;;;4985158;28;20094;-68
2022/10/12 06:35:20;;;;;;;34.53;14.20;;;;;;;;;;4981191;28;20017;-68
2022/10/12 06:37:51;;;;;;;30.55;13.35;;;;;;;;;;4990653;28;20018;-67
2022/10/12 06:40:17;;;;;;;28.63;13.20;;;;;;;;;;4980315;28;20046;-67
2022/10/12 06:42:42;;;;;;;32.00;13.63;;;;;;;;;;4973287;28;20538;-68
2022/10/12 06:45:08;;;;;;;45.38;13.68;;;;;;;;;;4980991;28;20060;-66
2022/10/12 06:47:33;;;;;;;25.23;11.80;;;;;;;;;;4987411;28;20111;-67
2022/10/12 06:49:58;;;;;;;27.95;13.73;;;;;;;;;;4980115;28;20543;-67
2022/10/12 06:52:23;;;;;;;34.53;12.73;;;;;;;;;;4990471;28;20062;-69
2022/10/12 06:54:48;;;;;;;34.78;13.73;;;;;;;;;;4963665;28;20114;-67
2022/10/12 06:57:13;;;;;;;28.55;13.07;;;;;;;;;;4972984;28;20481;-67
2022/10/12 06:59:39;;;;;;;23.75;11.52;;;;;;;;;;4990645;28;20100;-67
2022/10/12 07:02:04;;;;;;;18.50;9.57;;;;;;;;;;4970645;28;20026;-69
2022/10/12 07:04:30;;;;;;;21.85;11.55;;;;;;;;;;4982230;28;20055;-69
2022/10/12 07:06:55;;;;;;;30.13;11.43;;;;;;;;;;4983560;28;20026;-67
2022/10/12 07:09:20;;;;;;;20.98;10.38;;;;;;;;;;4982919;28;20086;-68
2022/10/12 07:11:46;;;;;;;22.00;11.10;;;;;;;;;;4985399;28;20033;-66
2022/10/12 07:14:11;;;;;;;29.42;10.52;;;;;;;;;;4994524;28;20038;-68
2022/10/12 07:16:36;;;;;;;29.02;11.35;;;;;;;;;;4993093;28;20022;-67
2022/10/12 07:19:02;;;;;;;33.85;12.43;;;;;;;;;;4975130;28;20023;-68
2022/10/12 07:21:27;;;;;;;50.80;14.75;;;;;;;;;;4988584;28;20049;-66
2022/10/12 07:23:52;;;;;;;26.60;10.93;;;;;;;;;;4994095;28;20515;-68
2022/10/12 07:26:17;;;;;;;21.98;9.80;;;;;;;;;;4993861;28;20058;-69
2022/10/12 07:28:42;;;;;;;22.60;10.05;;;;;;;;;;4993839;28;20097;-70
2022/10/12 07:31:08;;;;;;;29.20;9.40;;;;;;;;;;4994654;28;20041;-69
2022/10/12 07:33:34;;;;;;;22.42;10.05;;;;;;;;;;4987766;28;20026;-68
2022/10/12 07:36:00;;;;;;;33.53;11.70;;;;;;;;;;4987721;28;20025;-67
2022/10/12 07:38:26;;;;;;;25.95;10.35;;;;;;;;;;4980805;28;20023;-68
2022/10/12 07:40:51;;;;;;;29.77;9.63;;;;;;;;;;4979440;28;20038;-68
2022/10/12 07:43:16;;;;;;;20.25;9.27;;;;;;;;;;4982614;28;20026;-67
2022/10/12 07:45:42;;;;;;;33.15;10.18;;;;;;;;;;4989020;28;20476;-70
2022/10/12 07:48:07;;;;;;;31.38;9.10;;;;;;;;;;4986046;28;20019;-68
2022/10/12 07:50:33;;;;;;;21.73;8.38;;;;;;;;;;4975617;28;20057;-67
2022/10/12 07:52:58;;;;;;;27.50;9.55;;;;;;;;;;4993636;28;20125;-66
2022/10/12 07:55:23;;;;;;;22.08;9.00;;;;;;;;;;4992555;28;20066;-68
2022/10/12 07:57:48;;;;;;;22.88;7.55;;;;;;;;;;4984168;28;20041;-68
2022/10/12 08:00:14;;;;;;;13.90;6.80;;;;;;;;;;4980887;28;20019;-67
2022/10/12 08:02:39;;;;;;;19.58;7.53;;;;;;;;;;4994244;28;20022;-68
2022/10/12 08:05:04;;;;;;;24.08;8.93;;;;;;;;;;4993749;28;20057;-70
2022/10/12 08:07:29;;;;;;;21.58;8.77;;;;;;;;;;4987923;28;20063;-69
2022/10/12 08:09:55;;;;;;;21.35;6.40;;;;;;;;;;4987165;28;20022;-69
2022/10/12 08:12:21;;;;;;;25.67;8.90;;;;;;;;;;4993289;28;20062;-69
2022/10/12 08:14:46;;;;;;;26.13;8.07;;;;;;;;;;4979119;28;20022;-64
2022/10/12 08:17:11;;;;;;;26.65;7.88;;;;;;;;;;4986872;28;20026;-67
2022/10/12 08:19:37;;;;;;;24.00;7.38;;;;;;;;;;4986876;28;20496;-69
2022/10/12 08:22:02;;;;;;;27.52;7.57;;;;;;;;;;4980883;28;20048;-66
2022/10/12 08:24:27;;;;;;;25.75;7.57;;;;;;;;;;4994002;28;20038;-69
2022/10/12 08:26:52;;;;;;;24.25;7.53;;;;;;;;;;4993635;28;20026;-68
2022/10/12 08:29:18;;;;;;;22.30;8.02;;;;;;;;;;4993307;28;20025;-68
2022/10/12 08:31:43;;;;;;;22.13;6.90;;;;;;;;;;4979775;28;20062;-68
2022/10/12 08:34:08;;;;;;;23.38;6.50;;;;;;;;;;4985245;28;20081;-70
2022/10/12 08:36:33;;;;;;;25.77;8.18;;;;;;;;;;4992779;28;20551;-68
2022/10/12 08:38:59;;;;;;;31.55;7.55;;;;;;;;;;4993007;28;20092;-68
2022/10/12 08:41:33;;;;;;;14.35;6.32;;;;;;;;;;4988601;28;20023;-69
2022/10/12 08:44:04;;;;;;;19.52;6.25;;;;;;;;;;4956637;28;20027;-67
2022/10/12 08:46:29;;;;;;;25.40;7.43;;;;;;;;;;4980966;28;20042;-70
2022/10/12 08:49:04;;;;;;;28.38;7.32;;;;;;;;;;4981198;28;20063;-67
2022/10/12 08:51:30;;;;;;;21.02;7.40;;;;;;;;;;4992978;28;20050;-68
2022/10/12 08:53:58;;;;;;;24.45;6.43;;;;;;;;;;4992112;28;20412;-68
2022/10/12 08:56:23;;;;;;;23.10;6.80;;;;;;;;;;4992735;28;20030;-67
2022/10/12 08:58:49;;;;;;;22.52;6.55;;;;;;;;;;4986991;28;20022;-67
2022/10/12 09:01:26;;;;;;;19.08;5.95;;;;;;;;;;4992618;28;20079;-67
2022/10/12 09:04:13;;;;;;;20.10;6.25;;;;;;;;;;4979388;28;20026;-69
2022/10/12 09:06:42;;;;;;;14.85;6.32;;;;;;;;;;4983189;28;20078;-68
2022/10/12 09:09:14;;;;;;;24.80;5.90;;;;;;;;;;4972934;28;20023;-66
2022/10/12 09:11:39;;;;;;;25.88;7.43;;;;;;;;;;4985730;28;20030;-68
2022/10/12 09:14:07;;;;;;;19.57;6.50;;;;;;;;;;4983564;28;20029;-71
2022/10/12 09:16:33;;;;;;;25.50;6.18;;;;;;;;;;4990903;28;20244;-68
2022/10/12 09:19:02;;;;;;;17.33;5.53;;;;;;;;;;4980046;28;20110;-67
2022/10/12 09:21:30;;;;;;;16.10;5.20;;;;;;;;;;4978440;28;20026;-69
2022/10/12 09:23:55;;;;;;;28.48;5.97;;;;;;;;;;4955487;28;20506;-69
2022/10/12 09:26:30;;;;;;;23.30;6.43;;;;;;;;;;4954564;28;20495;-66
2022/10/12 09:28:56;;;;;;;16.58;5.28;;;;;;;;;;4980909;28;20022;-70
2022/10/12 09:31:40;;;;;;;17.20;5.57;;;;;;;;;;4988852;28;20388;-67
2022/10/12 09:34:07;;;;;;;12.70;5.18;;;;;;;;;;4984112;28;20022;-67
2022/10/12 09:36:38;;;;;;;17.23;5.43;;;;;;;;;;4978416;28;20662;-70
2022/10/12 09:39:11;;;;;;;27.05;5.15;;;;;;;;;;4979460;28;20515;-68
2022/10/12 09:41:39;;;;;;;18.17;5.47;;;;;;;;;;4972326;28;20054;-68
2022/10/12 09:44:05;;;;;;;19.52;5.00;;;;;;;;;;4984051;28;20106;-67
2022/10/12 09:46:54;;;;;;;25.42;5.05;;;;;;;;;;4954938;28;20019;-68
2022/10/12 09:49:19;;;;;;;20.15;4.30;;;;;;;;;;4959042;28;20034;-69
2022/10/12 09:51:45;;;;;;;16.50;5.38;;;;;;;;;;4982403;28;20542;-68
2022/10/12 09:54:16;;;;;;;19.00;4.43;;;;;;;;;;4978311;28;20488;-67
2022/10/12 09:56:45;;;;;;;17.23;4.35;;;;;;;;;;4991619;28;20014;-68
2022/10/12 09:59:21;;;;;;;25.60;4.53;;;;;;;;;;4986625;28;20077;-68
2022/10/12 10:01:58;;;;;;;16.83;4.35;;;;;;;;;;4984035;28;20026;-67
2022/10/12 10:04:29;;;;;;;22.25;4.45;;;;;;;;;;4970948;28;20019;-67
2022/10/12 10:06:54;;;;;;;20.45;4.25;;;;;;;;;;4987383;28;20017;-68
2022/10/12 10:09:33;;;;;;;14.57;3.35;;;;;;;;;;4979843;28;20125;-70
2022/10/12 10:12:10;;;;;;;17.45;4.57;;;;;;;;;;4988660;28;20023;-69
2022/10/12 10:14:35;;;;;;;16.60;3.10;;;;;;;;;;4964475;28;20166;-67
2022/10/12 10:17:01;;;;;;;34.88;3.97;;;;;;;;;;4986793;28;20023;-67
2022/10/12 10:19:26;;;;;;;16.75;4.35;;;;;;;;;;4982277;28;20053;-67
2022/10/12 10:21:52;;;;;;;25.50;4.43;;;;;;;;;;4974878;28;20425;-70
2022/10/12 10:24:23;;;;;;;24.48;3.58;;;;;;;;;;4955222;28;20027;-67
2022/10/12 10:26:49;;;;;;;17.77;4.40;;;;;;;;;;4975337;28;20077;-70
2022/10/12 10:29:15;;;;;;;17.42;4.13;;;;;;;;;;4991405;28;20209;-69
2022/10/12 10:31:40;;;;;;;15.32;3.33;;;;;;;;;;4976333;28;20727;-68
2022/10/12 10:34:14;;;;;;;23.77;3.97;;;;;;;;;;4980037;28;20368;-68
2022/10/12 10:36:44;;;;;;;16.85;3.92;;;;;;;;;;4983625;28;20042;-68
2022/10/12 10:39:17;;;;;;;26.75;4.28;;;;;;;;;;4981844;28;20023;-69
2022/10/12 10:41:43;;;;;;;28.67;4.72;;;;;;;;;;4971408;28;20038;-68
2022/10/12 10:44:37;;;;;;;20.38;5.40;;;;;;;;;;4984417;28;20030;-68
2022/10/12 10:47:08;;;;;;;23.20;3.72;;;;;;;;;;4955156;28;20039;-68
2022/10/12 10:49:33;;;;;;;17.33;4.07;;;;;;;;;;4984523;28;20576;-67
2022/10/12 10:51:59;;;;;;;12.85;3.30;;;;;;;;;;4987639;28;20030;-68
2022/10/12 10:54:28;;;;;;;13.18;3.63;;;;;;;;;;4977253;28;20030;-69
2022/10/12 10:57:02;;;;;;;19.42;4.55;;;;;;;;;;4978282;28;20105;-70
2022/10/12 10:59:33;;;;;;;40.55;9.23;;;;;;;;;;4978166;28;20022;-68
2022/10/12 11:02:01;;;;;;;21.08;4.00;;;;;;;;;;4978101;28;20504;-69
2022/10/12 11:04:35;;;;;;;21.60;4.20;;;;;;;;;;4973474;28;20436;-67
2022/10/12 11:07:06;;;;;;;20.70;3.85;;;;;;;;;;4980217;28;20068;-69
2022/10/12 11:09:39;;;;;;;46.60;11.82;;;;;;;;;;4980727;28;20054;-71
2022/10/12 11:12:06;;;;;;;70.10;21.40;;;;;;;;;;4986843;28;20547;-71
2022/10/12 11:14:52;;;;;;;30.40;8.18;;;;;;;;;;4971964;28;20366;-66
2022/10/12 11:17:20;;;;;;;26.23;5.63;;;;;;;;;;4978854;28;20492;-68
2022/10/12 11:19:51;;;;;;;18.60;3.78;;;;;;;;;;4977124;28;20053;-71
2022/10/12 11:22:23;;;;;;;13.52;3.42;;;;;;;;;;4989735;28;20026;-71
2022/10/12 11:24:57;;;;;;;13.18;3.45;;;;;;;;;;4977114;28;20023;-70
2022/10/12 11:27:22;;;;;;;45.13;11.55;;;;;;;;;;4989649;28;20058;-71
2022/10/12 11:29:52;;;;;;;24.58;5.28;;;;;;;;;;4991957;28;20026;-68
2022/10/12 11:32:25;;;;;;;18.05;4.38;;;;;;;;;;4990009;28;20018;-69
2022/10/12 11:34:53;;;;;;;12.68;3.85;;;;;;;;;;4976438;28;20038;-70
2022/10/12 11:37:19;;;;;;;25.13;4.05;;;;;;;;;;4989136;28;20030;-69
2022/10/12 11:39:47;;;;;;;15.75;3.67;;;;;;;;;;4989691;28;20028;-69
2022/10/12 11:42:17;;;;;;;17.70;4.97;;;;;;;;;;4977554;28;20019;-69
2022/10/12 11:44:43;;;;;;;20.60;4.43;;;;;;;;;;4988811;28;20543;-69
2022/10/12 11:47:18;;;;;;;25.77;4.57;;;;;;;;;;4989614;28;20035;-69
2022/10/12 11:49:52;;;;;;;23.67;4.70;;;;;;;;;;4984284;28;20035;-69
2022/10/12 11:52:18;;;;;;;16.90;4.63;;;;;;;;;;4988870;28;20393;-68
2022/10/12 11:54:43;;;;;;;14.43;3.60;;;;;;;;;;4985425;28;20023;-70
2022/10/12 11:57:14;;;;;;;19.30;4.43;;;;;;;;;;4988342;28;20072;-70
2022/10/12 11:59:48;;;;;;;18.00;4.30;;;;;;;;;;4976181;28;20248;-68
2022/10/12 12:02:17;;;;;;;23.35;4.15;;;;;;;;;;4990916;28;20118;-70
2022/10/12 12:04:44;;;;;;;10.70;4.55;;;;;;;;;;4984105;28;20026;-69
2022/10/12 12:07:21;;;;;;;12.98;3.90;;;;;;;;;;4990647;28;20030;-69
2022/10/12 12:09:46;;;;;;;19.95;4.90;;;;;;;;;;4985586;28;20022;-68
2022/10/12 12:12:22;;;;;;;18.52;3.80;;;;;;;;;;4993271;28;20080;-68
2022/10/12 12:14:53;;;;;;;26.77;4.03;;;;;;;;;;4992873;28;20018;-69
2022/10/12 12:17:19;;;;;;;26.92;4.30;;;;;;;;;;4984508;28;20493;-69
2022/10/12 12:19:45;;;;;;;17.20;4.37;;;;;;;;;;4980198;28;20690;-69
2022/10/12 12:22:27;;;;;;;26.75;4.18;;;;;;;;;;4986458;28;20311;-68
2022/10/12 12:24:55;;;;;;;20.40;4.60;;;;;;;;;;4968866;28;20101;-69
2022/10/12 12:27:29;;;;;;;15.60;3.90;;;;;;;;;;4973041;28;20026;-68
2022/10/12 12:29:55;;;;;;;16.77;4.45;;;;;;;;;;4987214;28;20057;-69
2022/10/12 12:32:21;;;;;;;23.15;4.10;;;;;;;;;;4984060;28;20113;-70
2022/10/12 12:34:52;;;;;;;18.15;4.72;;;;;;;;;;4994979;28;20057;-70
2022/10/12 12:37:20;;;;;;;22.15;3.78;;;;;;;;;;4994912;28;20048;-69
2022/10/12 12:39:50;;;;;;;18.80;5.47;;;;;;;;;;4996376;28;20121;-68
2022/10/12 12:42:20;;;;;;;18.35;4.57;;;;;;;;;;4985121;28;20253;-68
2022/10/12 12:44:45;;;;;;;26.83;5.35;;;;;;;;;;4995509;28;20530;-68
2022/10/12 12:47:11;;;;;;;15.30;3.67;;;;;;;;;;4991852;28;20062;-69
2022/10/12 12:49:36;;;;;;;20.92;5.18;;;;;;;;;;4978732;28;20327;-69
2022/10/12 12:52:02;;;;;;;19.10;4.73;;;;;;;;;;4991939;28;20111;-70
2022/10/12 12:54:27;;;;;;;22.90;4.68;;;;;;;;;;4991638;28;20267;-72
2022/10/12 12:57:11;;;;;;;33.85;4.40;;;;;;;;;;4978736;28;20557;-70
2022/10/12 12:59:36;;;;;;;16.45;5.82;;;;;;;;;;4980813;28;20513;-67
2022/10/12 13:02:05;;;;;;;18.63;4.53;;;;;;;;;;4989853;28;20065;-68
2022/10/12 13:04:33;;;;;;;17.65;5.10;;;;;;;;;;4992273;28;20248;-68
2022/10/12 13:06:58;;;;;;;41.05;6.72;;;;;;;;;;4991801;28;20066;-69
2022/10/12 13:09:23;;;;;;;17.33;4.50;;;;;;;;;;5000105;28;20472;-68
2022/10/12 13:11:59;;;;;;;17.25;4.20;;;;;;;;;;4978912;28;20389;-69
2022/10/12 13:14:28;;;;;;;17.08;4.32;;;;;;;;;;5000102;28;20024;-68
2022/10/12 13:16:53;;;;;;;21.63;4.32;;;;;;;;;;4982687;28;20079;-67
2022/10/12 13:19:18;;;;;;;13.07;4.18;;;;;;;;;;4977398;28;20112;-69
2022/10/12 13:21:46;;;;;;;30.70;6.82;;;;;;;;;;4991425;28;20037;-70
2022/10/12 13:24:29;;;;;;;20.95;4.18;;;;;;;;;;4982105;28;20034;-67
2022/10/12 13:26:56;;;;;;;19.63;3.90;;;;;;;;;;4991065;28;20022;-68
2022/10/12 13:29:32;;;;;;;20.20;4.43;;;;;;;;;;4991998;28;20045;-69
2022/10/12 13:31:58;;;;;;;24.67;5.90;;;;;;;;;;4980094;28;20033;-67
2022/10/12 13:34:27;;;;;;;26.55;4.93;;;;;;;;;;4978784;28;20027;-68
2022/10/12 13:36:52;;;;;;;18.85;4.47;;;;;;;;;;4983370;28;20429;-69
2022/10/12 13:39:19;;;;;;;24.77;5.85;;;;;;;;;;4987403;28;20026;-68
2022/10/12 13:41:45;;;;;;;28.42;5.32;;;;;;;;;;4974501;28;20034;-69
2022/10/12 13:44:18;;;;;;;31.83;4.78;;;;;;;;;;4978156;28;20030;-68
2022/10/12 13:46:58;;;;;;;18.80;4.80;;;;;;;;;;4991352;28;20476;-70
2022/10/12 13:49:23;;;;;;;17.05;4.53;;;;;;;;;;4969445;28;20124;-68
2022/10/12 13:51:52;;;;;;;17.92;4.10;;;;;;;;;;4972344;28;20023;-69
2022/10/12 13:54:20;;;;;;;16.50;4.22;;;;;;;;;;4986310;28;20512;-68
2022/10/12 13:56:47;;;;;;;18.20;4.13;;;;;;;;;;4982797;28;20023;-70
2022/10/12 13:59:15;;;;;;;17.60;4.25;;;;;;;;;;4991493;28;20053;-67
2022/10/12 14:01:47;;;;;;;17.67;5.28;;;;;;;;;;4990295;28;20018;-69
2022/10/12 14:04:13;;;;;;;15.68;4.55;;;;;;;;;;4971171;28;20027;-69
2022/10/12 14:06:38;;;;;;;24.92;5.32;;;;;;;;;;4985142;28;20369;-68
2022/10/12 14:09:08;;;;;;;18.70;4.20;;;;;;;;;;4978585;28;20022;-69
2022/10/12 14:11:33;;;;;;;15.60;4.30;;;;;;;;;;4991803;28;20034;-69
2022/10/12 14:13:59;;;;;;;23.20;4.60;;;;;;;;;;4986269;28;20125;-69
2022/10/12 14:16:24;;;;;;;16.58;3.70;;;;;;;;;;4974856;28;20038;-68
2022/10/12 14:18:49;;;;;;;31.52;4.93;;;;;;;;;;4975893;28;20051;-67
2022/10/12 14:21:18;;;;;;;35.35;5.30;;;;;;;;;;4990468;28;20022;-71
2022/10/12 14:23:48;;;;;;;13.20;4.70;;;;;;;;;;4981778;28;20517;-69
2022/10/12 14:26:23;;;;;;;17.63;5.45;;;;;;;;;;4967820;28;20029;-69
2022/10/12 14:28:49;;;;;;;16.90;4.28;;;;;;;;;;4985239;28;20026;-70